Mambai, Brazil
Current Conditions -  °F | °C
As of 7:00 PM on Tuesday 21 Oct 2014 (Local Time) from SBBR Reporting Station
Broken Clouds Broken Clouds  
Wind Chill: 82°   Ceiling: 3000
Heat Index: 82°   Visibility: 6mi
Dew Point: 55°   Wind: 7mph
Humidity: 39%   Direction: 80°E
Pressure: 29.97"   Gusts: NA
Location:  14.49°S, 46.11°W
Report Text: SBBR 212100Z 08006KT 9999 BKN030 FEW035TCU SCT080 28/13 Q1015 RETS
Loading
Personal Weather Stations






























Interactive Weather Map
Tropical Storm Tracking
New forecast layout! Learn more

10-Day Weather Forecast

Advertisements
Track Severe Weather on mobile